Flight Track Log - Related Links

Times and Time Zones

All times are in EDT time to prevent confusion due to time zone crossing. See the SWA3034 flight status page for this flight to view local times or setup timezone preferences in your user account.

Time Position Orientation Groundspeed Altitude Reporting Facility
EDT Latitude Longitude Course Direction KTS MPH feet Rate Location/Type
Mon 10:45:12 AM 34.9639 -82.3483 239° Southwest 280 322 10,000  Level Atlanta Center
Mon 10:46:12 AM 34.9019 -82.4028 216° Southwest 288 331 10,000  Level Atlanta Center
Mon 10:47:12 AM 34.8381 -82.4519 212° Southwest 288 331 10,000 750 Level Atlanta Center
Mon 10:48:00 AM 34.4464 -82.7295 226° Southwest  Level FlightAware Approximate
Mon 10:48:12 AM 34.7739 -82.5014 212° Southwest 283 326 11,500  Level Atlanta Center
Mon 10:49:00 AM 34.3931 -82.8306 239° Southwest  Level FlightAware Approximate
Mon 10:49:12 AM 34.7097 -82.5556 215° Southwest 283 326 14,700  Level Atlanta Center
Mon 10:50:00 AM 34.3402 -82.9364 239° Southwest  Level FlightAware Approximate
Mon 10:50:12 AM 34.6375 -82.6122 213° Southwest 301 346 16,400  Level Atlanta Center
Mon 10:51:12 AM 34.5589 -82.6767 214° Southwest 355 409 18,200 2,250 Climbing Atlanta Center
Mon 10:52:12 AM 34.4575 -82.7514 211° Southwest 383 441 20,900 2,400 Climbing Atlanta Center
Mon 10:53:12 AM 34.3683 -82.8233 214° Southwest 393 452 23,000 1,200 Climbing Atlanta Center
Mon 10:54:12 AM 34.2669 -82.8950 210° Southwest 412 474 23,300 1,050 Climbing Atlanta Center
Mon 10:55:12 AM 34.1886 -83.0017 228° Southwest 415 478 25,100 1,800 Climbing Atlanta Center
Mon 10:56:12 AM 34.1561 -83.1450 255° West 423 487 26,900 2,000 Climbing Atlanta Center
Mon 10:57:12 AM 34.1197 -83.2861 253° West 435 501 29,100 2,050 Climbing Atlanta Center
Mon 10:58:12 AM 34.0850 -83.4217 253° West 435 501 31,000 1,850 Climbing Atlanta Center
Mon 10:59:12 AM 34.0481 -83.5575 252° West 435 501 32,800 1,800 Climbing Atlanta Center
Mon 11:00:12 AM 34.0108 -83.6906 251° West 430 495 34,600 1,500 Climbing Atlanta Center
Mon 11:01:12 AM 33.9797 -83.8108 253° West 425 489 35,800 1,133 Climbing Atlanta Center
Mon 11:03:12 AM 33.9092 -84.0714 252° West 413 475 38,000 733 Climbing Atlanta Center
Mon 11:04:12 AM 33.8733 -84.1964 251° West 406 467 38,000  Level Atlanta Center
Mon 11:05:12 AM 33.8356 -84.3339 252° West 418 481 38,000  Level Atlanta Center
Mon 11:06:12 AM 33.8039 -84.4714 255° West 424 488 38,000  Level Atlanta Center
Mon 11:07:12 AM 33.7658 -84.5961 250° West 424 488 38,000  Level Atlanta Center
Mon 11:08:12 AM 33.7297 -84.7283 252° West 424 488 38,000  Level Atlanta Center
Mon 11:09:12 AM 33.6892 -84.8778 252° West 424 488 38,000  Level Atlanta Center
Mon 11:10:12 AM 33.6569 -84.9947 252° West 424 488 38,000  Level Atlanta Center
Mon 11:11:12 AM 33.6203 -85.1239 251° West 416 479 38,000  Level Atlanta Center
Mon 11:12:12 AM 33.5836 -85.2508 251° West 416 479 38,000  Level Atlanta Center
Mon 11:13:12 AM 33.5489 -85.3797 252° West 416 479 38,000  Level Atlanta Center
Mon 11:14:12 AM 33.5119 -85.5114 251° West 411 473 38,000  Level Atlanta Center
Mon 11:15:12 AM 33.4750 -85.6353 250° West 411 473 38,000  Level Atlanta Center
Mon 11:16:12 AM 33.4378 -85.7664 251° West 406 467 38,000  Level Atlanta Center
Mon 11:17:12 AM 33.3983 -85.8975 250° West 400 460 38,000  Level Atlanta Center
Mon 11:18:12 AM 33.3675 -86.0064 251° West 407 468 38,000  Level Atlanta Center
Mon 11:19:12 AM 33.3231 -86.1594 251° West 414 476 38,000  Level Atlanta Center
Mon 11:20:12 AM 33.2853 -86.2828 250° West 409 471 38,000  Level Atlanta Center
Mon 11:21:12 AM 33.2475 -86.4183 252° West 409 471 38,000  Level Atlanta Center
Mon 11:22:12 AM 33.2072 -86.5514 250° West 419 482 38,000  Level Atlanta Center
Mon 11:23:12 AM 33.1736 -86.6644 250° West 419 482 38,000  Level Atlanta Center
Mon 11:24:12 AM 33.1353 -86.7925 250° West 424 488 38,000  Level Atlanta Center
Mon 11:25:12 AM 33.0969 -86.9200 250° West 417 480 38,000  Level Atlanta Center
Mon 11:26:12 AM 33.0561 -87.0478 249° West 417 480 38,000  Level Atlanta Center
Mon 11:27:12 AM 33.0175 -87.1775 250° West 412 474 38,000  Level Atlanta Center
Mon 11:29:36 AM 32.9225 -87.4814 250° West 412 474 38,000  Level Memphis Center
Mon 11:30:36 AM 32.8817 -87.6089 249° West 417 480 38,000  Level Memphis Center
Mon 11:31:36 AM 32.8425 -87.7389 250° West 417 480 38,000  Level Memphis Center
Mon 11:32:36 AM 32.8014 -87.8686 249° West 417 480 38,000  Level Memphis Center
Mon 11:33:36 AM 32.7603 -88.0106 251° West 417 480 38,000  Level Memphis Center
Mon 11:34:36 AM 32.7231 -88.1375 251° West 412 474 38,000  Level Memphis Center
Mon 11:35:36 AM 32.6814 -88.2642 249° West 412 474 38,000  Level Memphis Center
Mon 11:36:36 AM 32.6458 -88.3811 250° West 419 482 38,000  Level Memphis Center
Mon 11:37:36 AM 32.6058 -88.5053 249° West 419 482 38,000  Level Memphis Center
Mon 11:38:36 AM 32.5658 -88.6319 249° West 414 476 38,000  Level Memphis Center
Mon 11:39:36 AM 32.5258 -88.7558 249° West 414 476 38,000  Level Memphis Center
Mon 11:40:36 AM 32.4836 -88.8847 249° West 414 476 38,000  Level Memphis Center
Mon 11:41:36 AM 32.4453 -89.0058 249° West 414 476 38,000  Level Memphis Center
Mon 11:42:36 AM 32.4028 -89.1369 249° West 414 476 38,000  Level Memphis Center
Mon 11:43:36 AM 32.3622 -89.2603 249° West 414 476 38,000  Level Memphis Center
Mon 11:44:36 AM 32.3217 -89.3839 249° West 414 476 38,000  Level Memphis Center
Mon 11:45:36 AM 32.2806 -89.5094 249° West 414 476 38,000  Level Memphis Center
Mon 11:46:36 AM 32.2397 -89.6378 249° West 414 476 38,000  Level Memphis Center
Mon 11:47:36 AM 32.1986 -89.7633 249° West 414 476 38,000  Level Memphis Center
Mon 11:48:36 AM 32.1553 -89.8911 248° West 414 476 38,000  Level Memphis Center
Mon 11:49:36 AM 32.1142 -90.0164 249° West 414 476 38,000  Level Memphis Center
Mon 11:50:36 AM 32.0725 -90.1417 249° West 414 476 38,000  Level Memphis Center
Mon 11:52:52 AM 31.9728 -90.4375 248° West 417 480 38,000  Level Houston Center
Mon 11:53:54 AM 31.9314 -90.5619 249° West 411 473 38,000  Level Houston Center
Mon 11:54:56 AM 31.8883 -90.6889 248° West 417 480 38,000  Level Houston Center
Mon 11:55:58 AM 31.8444 -90.8153 248° West 418 481 38,000  Level Houston Center
Mon 11:57:00 AM 31.8014 -90.9417 248° West 419 482 38,000  Level Houston Center
Mon 11:58:02 AM 31.7483 -91.0939 248° West 421 484 38,000  Level Houston Center
Mon 11:59:04 AM 31.7042 -91.2197 248° West 419 482 38,000  Level Houston Center
Mon 12:00:06 PM 31.6586 -91.3486 247° West 427 491 38,000  Level Houston Center
Mon 12:01:09 PM 31.6153 -91.4733 248° West 416 479 38,000  Level Houston Center
Mon 12:02:11 PM 31.5697 -91.6006 247° West 420 483 38,000  Level Houston Center
Mon 12:03:13 PM 31.5200 -91.7403 247° West 421 484 38,000  Level Houston Center
Mon 12:04:15 PM 31.4739 -91.8678 247° West 425 489 38,000  Level Houston Center
Mon 12:05:17 PM 31.4253 -91.9942 246° West 427 491 38,000  Level Houston Center
Mon 12:06:19 PM 31.3725 -92.1483 248° West 426 490 38,000  Level Houston Center
Mon 12:07:21 PM 31.3272 -92.2772 248° West 429 494 38,000  Level Houston Center
Mon 12:08:23 PM 31.2803 -92.4056 247° West 430 495 38,000  Level Houston Center
Mon 12:09:25 PM 31.2339 -92.5336 247° West 430 495 38,000  Level Houston Center
Mon 12:10:28 PM 31.1878 -92.6614 247° West 429 494 38,000  Level Houston Center
Mon 12:11:30 PM 31.1422 -92.7886 247° West 427 491 38,000  Level Houston Center
Mon 12:12:32 PM 31.0858 -92.9417 247° West 429 494 38,000  Level Houston Center
Mon 12:13:34 PM 31.0400 -93.0686 247° West 428 493 38,000 -194 Level Houston Center
Mon 12:14:36 PM 30.9931 -93.1972 247° West 432 497 37,600 -484 Descending Houston Center
Mon 12:15:38 PM 30.9456 -93.3225 246° West 426 490 37,000 -290 Descending Houston Center
Mon 12:16:40 PM 30.8994 -93.4481 247° West 424 488 37,000 -339 Level Houston Center
Mon 12:17:42 PM 30.8442 -93.6003 247° West 429 494 36,300 -919 Descending Houston Center
Mon 12:18:44 PM 30.7950 -93.7289 246° West 437 503 35,100 -2,016 Descending Houston Center
Mon 12:19:47 PM 30.7472 -93.8583 247° West 439 505 32,100 -2,736 Descending Houston Center
Mon 12:20:49 PM 30.6983 -93.9883 246° West 442 509 29,400 -2,226 Descending Houston Center
Mon 12:21:51 PM 30.6356 -94.1542 246° West 464 534 27,500 -2,236 Descending Houston Center
Mon 12:22:39 PM 30.5936 -94.2614 246° West 474 545 25,300 -2,807 Descending Houston Center
Mon 12:23:40 PM 30.5406 -94.4044 247° West 461 531 22,400 -2,705 Descending Houston Center
Mon 12:24:41 PM 30.4897 -94.5275 244° Southwest 437 503 19,800 -2,607 Descending Houston Center
Mon 12:25:42 PM 30.4128 -94.6442 233° Southwest 415 478 17,100 -2,656 Descending Houston Center
Mon 12:26:43 PM 30.3450 -94.7497 233° Southwest 408 470 14,400 -2,000 Descending Houston Center
Mon 12:27:45 PM 30.2789 -94.8503 233° Southwest 392 451 13,000 -738 Descending Houston Center
Mon 12:28:45 PM 30.2169 -94.9500 234° Southwest 383 441 12,900 -545 Descending Houston Center
Mon 12:29:46 PM 30.1469 -95.0531 232° Southwest 388 447 11,900 -927 Descending Houston Center
Mon 12:30:48 PM 30.0492 -95.1086 206° Southwest 379 436 11,000 -439 Descending Houston Center
Mon 12:31:49 PM 29.9500 -95.1497 200° South 376 433 11,000 -49 Level Houston Center
Mon 12:32:50 PM 29.8614 -95.1894 201° Southwest 310 357 10,900 -639 Descending Houston Center
Mon 12:33:51 PM 29.7806 -95.2233 200° South 293 337 9,700 -1,525 Descending Houston Center
Mon 12:34:52 PM 29.7039 -95.2350 188° South 285 328 7,800 -1,623 Descending Houston Center
Mon 12:35:53 PM 29.6222 -95.2378 182° South 268 308 6,400 -878 Descending Houston Center
Mon 12:36:55 PM 29.5561 -95.2506 190° South 238 274 6,000 -683 Descending Houston Center
Mon 12:37:56 PM 29.5081 -95.2972 220° Southwest 226 260 5,000 -984 Descending Houston Center
Mon 12:38:57 PM 29.5114 -95.3569 274° West 203 234 4,000 -923 Descending Houston Center
Mon 12:39:27 PM 29.5261 -95.3700 322° Northwest 207 238 3,600 -1,574 Descending Houston Center
Mon 12:39:58 PM 29.5603 -95.3631 10° North 170 196 2,400 -1,548 Descending Houston Center
Mon 12:40:29 PM 29.5803 -95.3478 34° Northeast 184 212 2,000 -590 Descending Houston Center
Mon 12:40:59 PM 29.5975 -95.3322 38° Northeast 156 180 1,800 -968 Descending Houston Center
Mon 12:41:31 PM 29.6125 -95.3167 42° Northeast 165 190 1,000 -1,085 Descending Houston Center
Mon 12:42:33 PM 29.6392 -95.2869 44° Northeast 145 167 100 -871 Descending Houston Center

Login

Don't have an account? Register now (free) for customized features, flight alerts, and more!